Time;durP1;ratioP1;P1;durP2;ratioP2;P2;SDS_P1;SDS_P2;PMS_P1;PMS_P2;Temp;Humidity;BMP_temperature;BMP_pressure;BME280_temperature;BME280_humidity;BME280_pressure;Samples;Min_cycle;Max_cycle;Signal;HPM_P1;HPM_P2
2023/10/05 00:01:05;;;;;;;3.20;1.80;;;;;;;13.13;83.33;100886.20;88690;280;137568;-74
2023/10/05 00:03:10;;;;;;;2.40;1.70;;;;;;;13.14;83.50;100883.84;88796;273;22530;-76
2023/10/05 00:05:12;;;;;;;4.20;2.40;;;;;;;13.14;83.49;100884.90;88727;281;138327;-76
2023/10/05 00:07:26;;;;;;;9.20;2.80;;;;;;;13.15;83.47;100881.66;88838;281;24049;-75
2023/10/05 00:09:29;;;;;;;7.50;2.70;;;;;;;13.15;83.40;100883.19;88627;281;137730;-75
2023/10/05 00:11:30;;;;;;;4.20;2.60;;;;;;;13.15;83.49;100882.81;88791;281;24170;-73
2023/10/05 00:13:34;;;;;;;5.30;2.70;;;;;;;13.14;83.45;100878.89;88567;280;136011;-75
2023/10/05 00:15:36;;;;;;;3.60;2.70;;;;;;;13.13;83.52;100879.90;88812;280;24034;-73
2023/10/05 00:17:38;;;;;;;4.90;2.50;;;;;;;13.11;83.59;100884.27;88616;280;135976;-76
2023/10/05 00:19:41;;;;;;;3.40;2.90;;;;;;;13.10;83.64;100884.69;88818;273;23492;-75
2023/10/05 00:21:50;;;;;;;3.40;2.90;;;;;;;13.08;83.67;100886.74;88788;277;136200;-72
2023/10/05 00:23:54;;;;;;;2.80;2.50;;;;;;;13.07;83.76;100892.04;88806;277;24016;-76
2023/10/05 00:25:56;;;;;;;2.60;2.20;;;;;;;13.08;83.73;100889.98;88736;273;136830;-74
2023/10/05 00:28:01;;;;;;;3.40;2.10;;;;;;;13.08;83.73;100886.94;88822;281;24014;-75
2023/10/05 00:30:06;;;;;;;;;;;;;;;13.08;83.79;100881.78;88797;274;22518;-72
2023/10/05 00:32:14;;;;;;;5.70;2.00;;;;;;;13.05;83.83;100882.42;88745;280;123173;-76
2023/10/05 00:34:24;;;;;;;3.30;2.50;;;;;;;13.03;83.88;100880.73;88819;281;25255;-78
2023/10/05 00:36:32;;;;;;;3.60;2.20;;;;;;;12.99;83.97;100882.00;88708;281;136957;-74
2023/10/05 00:38:35;;;;;;;3.00;2.00;;;;;;;12.94;84.01;100887.17;88848;277;22706;-75
2023/10/05 00:40:42;;;;;;;2.40;1.90;;;;;;;12.91;84.28;100890.64;88785;273;136837;-75
2023/10/05 00:42:44;;;;;;;6.00;2.40;;;;;;;12.86;84.45;100893.23;89102;280;24719;-73
2023/10/05 00:44:46;;;;;;;4.30;1.80;;;;;;;12.85;84.67;100895.81;88674;281;136135;-73
2023/10/05 00:46:50;;;;;;;2.60;1.90;;;;;;;12.84;84.90;100891.23;88819;273;24075;-74
2023/10/05 00:51:14;;;;;;;3.80;1.40;;;;;;;12.87;84.75;100883.65;88876;280;22597;-75
2023/10/05 00:53:17;;;;;;;2.00;0.90;;;;;;;12.89;84.90;100885.93;88710;282;136921;-74
2023/10/05 00:55:20;;;;;;;2.80;1.40;;;;;;;12.88;84.73;100881.88;88931;273;22654;-75
2023/10/05 00:57:24;;;;;;;2.20;1.70;;;;;;;12.91;84.89;100881.88;88694;277;136679;-73
2023/10/05 00:59:30;;;;;;;3.60;2.10;;;;;;;12.94;84.78;100881.23;88857;280;25080;-74
2023/10/05 01:02:04;;;;;;;2.60;1.60;;;;;;;12.93;84.86;100880.36;88680;279;136859;-74
2023/10/05 01:06:12;;;;;;;1.70;1.30;;;;;;;12.92;84.73;100881.46;88814;274;23708;-73
2023/10/05 01:08:17;;;;;;;3.30;2.20;;;;;;;12.92;84.81;100886.05;88784;278;137643;-80
2023/10/05 01:10:29;;;;;;;;;;;;;;;12.91;84.83;100890.48;88875;279;25308;-73
2023/10/05 01:14:51;;;;;;;2.30;1.80;;;;;;;12.92;84.84;100901.01;88628;280;25213;-76
2023/10/05 01:16:54;;;;;;;2.70;1.60;;;;;;;12.93;84.93;100897.17;88726;280;138069;-75
2023/10/05 01:18:56;;;;;;;1.80;1.10;;;;;;;12.94;85.01;100891.34;88774;278;25170;-77
2023/10/05 01:21:01;;;;;;;2.10;1.70;;;;;;;12.97;84.90;100895.10;88717;273;136612;-72
2023/10/05 01:23:04;;;;;;;;;;;;;;;12.98;84.77;100892.36;88868;273;22530;-72
2023/10/05 01:25:08;;;;;;;2.80;1.50;;;;;;;12.98;84.52;100894.39;88738;280;123574;-75
2023/10/05 01:27:11;;;;;;;3.70;1.50;;;;;;;12.97;84.63;100901.13;89083;273;22543;-74
2023/10/05 01:29:12;;;;;;;3.20;1.90;;;;;;;12.94;84.84;100898.48;88730;277;136171;-76
2023/10/05 01:31:16;;;;;;;2.60;1.40;;;;;;;12.89;85.10;100899.13;88903;280;22625;-76
2023/10/05 01:33:19;;;;;;;4.00;2.30;;;;;;;12.86;85.16;100903.39;88688;273;137170;-73
2023/10/05 01:35:23;;;;;;;2.30;1.50;;;;;;;12.84;85.29;100903.01;88847;273;24015;-74
2023/10/05 01:37:26;;;;;;;5.10;1.50;;;;;;;12.85;85.41;100908.14;88792;280;136772;-73
2023/10/05 01:39:32;;;;;;;4.90;1.60;;;;;;;12.88;85.48;100911.19;88811;273;24165;-79
2023/10/05 01:41:34;;;;;;;5.10;2.40;;;;;;;12.89;85.52;100913.19;88731;276;136667;-68
2023/10/05 01:43:36;;;;;;;2.60;1.30;;;;;;;12.90;85.42;100916.30;88864;280;25373;-70
2023/10/05 01:45:38;;;;;;;3.00;1.70;;;;;;;12.88;85.43;100918.27;88712;280;136714;-72
2023/10/05 01:47:40;;;;;;;5.40;1.40;;;;;;;12.87;85.47;100914.56;88943;276;24222;-74
2023/10/05 01:49:46;;;;;;;2.90;1.60;;;;;;;12.83;85.53;100917.97;88783;277;136947;-72
2023/10/05 01:51:51;;;;;;;7.60;1.70;;;;;;;12.80;85.78;100920.61;89053;273;22590;-71
2023/10/05 01:54:04;;;;;;;4.80;2.20;;;;;;;12.76;85.92;100922.59;88736;281;136133;-75
2023/10/05 01:56:23;;;;;;;2.90;1.70;;;;;;;12.70;86.50;100925.52;89031;280;137349;-72
2023/10/05 01:58:27;;;;;;;4.90;2.00;;;;;;;12.63;86.78;100927.01;88760;282;24478;-71
2023/10/05 02:00:31;;;;;;;3.70;2.10;;;;;;;12.58;87.17;100927.52;89218;282;136659;-75
2023/10/05 02:02:34;;;;;;;3.00;1.60;;;;;;;12.54;87.31;100926.40;88799;282;22554;-75
2023/10/05 02:04:44;;;;;;;6.70;1.50;;;;;;;12.53;87.24;100922.93;88659;282;138620;-74
2023/10/05 02:06:49;;;;;;;4.40;1.80;;;;;;;12.53;87.57;100923.48;88914;280;22537;-73
2023/10/05 02:08:54;;;;;;;2.40;1.70;;;;;;;12.53;87.75;100927.63;89077;274;137860;-72
2023/10/05 02:10:55;;;;;;;2.60;1.50;;;;;;;12.51;87.85;100929.98;89187;281;24058;-74
2023/10/05 02:13:00;;;;;;;2.20;1.60;;;;;;;12.48;88.08;100929.61;88986;275;137503;-72
2023/10/05 02:15:06;;;;;;;4.90;2.20;;;;;;;12.44;88.70;100929.39;89015;273;22520;-75
2023/10/05 02:17:12;;;;;;;2.40;1.60;;;;;;;12.42;88.71;100934.02;88794;280;136812;-73
2023/10/05 02:19:16;;;;;;;4.10;1.90;;;;;;;12.39;89.03;100935.91;88925;281;22520;-73
2023/10/05 02:21:28;;;;;;;4.20;2.00;;;;;;;12.32;89.46;100934.77;88884;282;135750;-73
2023/10/05 02:23:35;;;;;;;3.70;1.80;;;;;;;12.28;89.59;100941.94;88594;281;22542;-73
2023/10/05 02:25:37;;;;;;;2.90;2.10;;;;;;;12.25;89.87;100949.63;88873;274;136196;-73
2023/10/05 02:27:46;;;;;;;4.90;2.10;;;;;;;12.23;90.17;100947.67;88862;277;23975;-71
2023/10/05 02:29:48;;;;;;;2.70;2.00;;;;;;;12.22;90.24;100948.60;88817;281;138426;-72
2023/10/05 02:32:02;;;;;;;4.20;2.50;;;;;;;12.20;90.57;100950.05;88978;281;22531;-74
2023/10/05 02:34:07;;;;;;;;;;;;;;;12.18;90.63;100947.06;88825;281;22504;-73
2023/10/05 02:36:30;;;;;;;7.70;2.30;;;;;;;12.16;90.84;100942.75;88774;280;124625;-75
2023/10/05 02:38:32;;;;;;;3.80;2.40;;;;;;;12.13;91.16;100939.09;88883;280;22543;-74
2023/10/05 02:40:35;;;;;;;6.60;2.10;;;;;;;12.12;91.17;100942.00;88777;281;137651;-75
2023/10/05 02:42:39;;;;;;;6.70;2.60;;;;;;;12.10;91.43;100942.31;88823;277;22533;-75
2023/10/05 02:44:45;;;;;;;2.50;2.20;;;;;;;12.08;91.44;100942.77;89045;281;138131;-75
2023/10/05 02:46:48;;;;;;;5.00;2.10;;;;;;;11.98;91.69;100923.05;88975;281;24015;-74
2023/10/05 02:48:50;;;;;;;5.40;2.20;;;;;;;12.05;91.90;100934.55;88572;282;137409;-76
2023/10/05 02:50:52;;;;;;;6.70;2.60;;;;;;;12.03;92.10;100931.07;88813;274;24032;-72
2023/10/05 02:52:54;;;;;;;5.10;2.50;;;;;;;12.04;92.31;100929.56;88682;274;138102;-74
2023/10/05 02:54:56;;;;;;;1.80;1.60;;;;;;;12.04;92.36;100929.67;88916;279;25068;-72
2023/10/05 02:56:58;;;;;;;4.50;2.20;;;;;;;12.04;92.43;100929.23;89076;274;137812;-73
2023/10/05 02:59:02;;;;;;;2.60;1.90;;;;;;;12.01;92.81;100932.15;88790;275;437595;-76
2023/10/05 03:01:10;;;;;;;3.80;2.20;;;;;;;12.01;92.87;100930.24;89032;277;136830;-73
2023/10/05 03:03:14;;;;;;;2.00;1.80;;;;;;;12.00;92.98;100927.31;88914;281;26156;-73
2023/10/05 03:05:15;;;;;;;7.60;2.40;;;;;;;11.98;93.19;100929.00;88882;280;137872;-75
2023/10/05 03:07:18;;;;;;;6.50;3.20;;;;;;;11.95;93.23;100929.30;88796;273;22610;-74
2023/10/05 03:09:21;;;;;;;4.60;1.60;;;;;;;11.94;93.31;100933.96;88880;280;138259;-71
2023/10/05 03:11:25;;;;;;;1.80;1.70;;;;;;;11.94;93.77;100935.08;89073;280;23597;-74
2023/10/05 03:13:27;;;;;;;2.90;2.50;;;;;;;11.91;93.97;100936.51;88887;279;136672;-75
2023/10/05 03:15:30;;;;;;;3.90;2.70;;;;;;;11.86;94.25;100942.83;89099;275;23718;-71
2023/10/05 03:17:36;;;;;;;5.20;2.60;;;;;;;11.83;94.30;100948.20;88896;280;137912;-73
2023/10/05 03:19:39;;;;;;;4.90;2.20;;;;;;;11.78;94.94;100945.70;89020;281;22753;-73
2023/10/05 03:21:41;;;;;;;4.00;2.50;;;;;;;11.74;95.17;100943.25;89528;280;137731;-76
2023/10/05 03:23:43;;;;;;;6.40;3.20;;;;;;;11.70;95.46;100938.48;89137;280;22550;-73
2023/10/05 03:25:47;;;;;;;6.10;2.60;;;;;;;11.68;95.82;100935.71;90005;280;136578;-73
2023/10/05 03:27:49;;;;;;;3.80;2.70;;;;;;;11.67;96.06;100939.48;91211;281;22415;-72
2023/10/05 03:29:52;;;;;;;4.70;2.80;;;;;;;11.67;96.11;100935.79;91179;279;136709;-72
2023/10/05 03:32:19;;;;;;;3.80;2.50;;;;;;;11.68;96.09;100937.16;91044;282;22662;-72
2023/10/05 03:34:16;;;;;;;7.30;2.40;;;;;;;11.69;96.13;100941.95;89333;281;25447;-72
2023/10/05 03:36:18;;;;;;;4.40;3.60;;;;;;;11.69;96.03;100941.56;89138;281;137549;-73
2023/10/05 03:38:22;;;;;;;3.10;2.40;;;;;;;11.68;96.33;100940.53;89055;281;25300;-72
2023/10/05 03:40:30;;;;;;;3.10;2.80;;;;;;;11.59;96.45;100930.89;88700;281;136613;-77
2023/10/05 03:42:32;;;;;;;4.70;2.80;;;;;;;11.63;96.29;100942.73;88919;279;22542;-73
2023/10/05 03:44:34;;;;;;;10.00;3.30;;;;;;;11.61;96.64;100947.19;88688;280;137804;-76
2023/10/05 03:46:36;;;;;;;3.10;2.50;;;;;;;11.58;96.78;100945.05;88893;275;22522;-74
2023/10/05 03:48:39;;;;;;;6.20;3.30;;;;;;;11.55;97.30;100946.17;88764;271;136923;-73
2023/10/05 03:50:41;;;;;;;5.50;3.30;;;;;;;11.52;97.47;100945.10;88933;278;22573;-76
2023/10/05 03:52:44;;;;;;;6.00;3.00;;;;;;;11.48;97.97;100946.97;88749;280;137229;-74
2023/10/05 03:54:46;;;;;;;3.00;2.40;;;;;;;11.44;98.10;100943.86;88976;271;22517;-73
2023/10/05 03:57:04;;;;;;;4.60;3.20;;;;;;;11.40;98.66;100945.70;88803;276;137804;-75
2023/10/05 03:59:08;;;;;;;3.80;2.80;;;;;;;11.38;99.13;100945.27;89002;271;22499;-72
2023/10/05 04:01:12;;;;;;;3.70;2.40;;;;;;;11.38;99.12;100944.42;88621;275;136571;-72
2023/10/05 04:03:19;;;;;;;7.40;3.20;;;;;;;11.37;99.58;100948.90;88907;277;22568;-75
2023/10/05 04:05:22;;;;;;;4.90;2.60;;;;;;;11.34;99.61;100947.35;88980;276;136645;-74
2023/10/05 04:07:28;;;;;;;4.50;2.50;;;;;;;11.34;99.85;100956.54;88934;279;22529;-73
2023/10/05 04:09:33;;;;;;;3.80;2.80;;;;;;;11.36;99.92;100955.50;88843;279;136641;-73
2023/10/05 04:11:34;;;;;;;4.70;3.10;;;;;;;11.35;100.00;100956.35;88850;280;22546;-73
2023/10/05 04:13:36;;;;;;;7.70;3.20;;;;;;;11.33;100.00;100955.42;88773;271;137618;-74
2023/10/05 04:15:39;;;;;;;4.50;2.90;;;;;;;11.32;100.00;100955.45;89140;273;22527;-73
2023/10/05 04:17:43;;;;;;;5.40;2.90;;;;;;;11.32;100.00;100953.65;88810;280;136654;-71
2023/10/05 04:19:46;;;;;;;12.10;3.90;;;;;;;11.33;100.00;100957.05;88760;278;25309;-70
2023/10/05 04:21:49;;;;;;;6.20;3.50;;;;;;;11.34;100.00;100958.35;88765;278;138891;-71
2023/10/05 04:23:56;;;;;;;3.00;2.70;;;;;;;11.34;100.00;100961.19;88607;273;24072;-70
2023/10/05 04:25:58;;;;;;;4.10;2.70;;;;;;;11.38;100.00;100959.89;88699;272;136907;-73
2023/10/05 04:28:00;;;;;;;3.60;2.90;;;;;;;11.45;100.00;100961.84;88997;280;22563;-71
2023/10/05 04:30:03;;;;;;;7.80;3.50;;;;;;;11.56;100.00;100966.02;89006;271;137959;-70
2023/10/05 04:32:06;;;;;;;5.80;4.00;;;;;;;11.67;100.00;100968.73;88479;271;137724;-71
2023/10/05 04:34:12;;;;;;;3.20;2.90;;;;;;;11.80;99.98;100965.41;88607;271;24054;-72
2023/10/05 04:36:22;;;;;;;4.20;3.10;;;;;;;11.99;99.37;100965.95;88679;271;136987;-72
2023/10/05 04:38:25;;;;;;;6.20;3.50;;;;;;;12.18;98.00;100964.21;88423;277;25622;-70
2023/10/05 04:40:27;;;;;;;5.10;3.50;;;;;;;12.38;96.71;100965.89;88915;274;136734;-72
2023/10/05 04:42:28;;;;;;;7.80;2.70;;;;;;;12.57;95.47;100968.45;89106;271;22532;-68
2023/10/05 04:44:31;;;;;;;4.80;3.30;;;;;;;12.78;94.15;100967.30;88567;271;136832;-73
2023/10/05 04:46:33;;;;;;;11.30;4.30;;;;;;;13.01;92.63;100970.50;88625;273;25080;-72
2023/10/05 04:48:35;;;;;;;5.80;3.10;;;;;;;13.23;90.99;100975.55;88578;276;136653;-72
2023/10/05 04:50:41;;;;;;;4.10;3.10;;;;;;;13.44;90.28;100980.40;88628;276;25226;-71
2023/10/05 04:52:45;;;;;;;6.20;3.10;;;;;;;13.66;88.80;100983.36;88608;271;136218;-70
2023/10/05 04:54:51;;;;;;;7.30;3.00;;;;;;;13.85;86.73;100982.81;88585;277;24237;-71
2023/10/05 04:59:22;;;;;;;5.70;3.60;;;;;;;14.07;85.31;100979.68;89012;280;22544;-71
2023/10/05 05:01:28;;;;;;;2.60;2.30;;;;;;;14.30;84.26;100982.30;88368;272;136527;-69
2023/10/05 05:03:48;;;;;;;3.70;3.30;;;;;;;14.53;82.90;100988.67;89161;276;25077;-72
2023/10/05 05:06:34;;;;;;;5.90;3.20;;;;;;;14.81;81.48;100983.15;88899;273;136441;-70
2023/10/05 05:08:16;;;;;;;8.20;2.90;;;;;;;15.07;79.45;100984.13;88648;277;137899;-73
2023/10/05 05:10:20;;;;;;;6.20;2.80;;;;;;;15.18;78.24;100986.42;88795;273;22520;-71
2023/10/05 05:12:26;;;;;;;5.20;2.30;;;;;;;15.29;78.29;100982.90;88899;280;136341;-71
2023/10/05 05:14:58;;;;;;;5.60;3.00;;;;;;;15.50;76.43;100985.08;89038;278;22531;-72
2023/10/05 05:17:07;;;;;;;3.40;3.00;;;;;;;15.75;75.28;100989.69;88638;278;135953;-72
2023/10/05 05:19:10;;;;;;;8.00;3.00;;;;;;;15.95;73.88;100992.56;88711;275;25137;-71
2023/10/05 05:21:12;;;;;;;5.00;2.20;;;;;;;16.11;73.53;100993.90;88532;279;135986;-72
2023/10/05 05:23:16;;;;;;;4.80;2.70;;;;;;;16.38;72.53;100989.23;88710;276;24525;-73
2023/10/05 05:25:19;;;;;;;5.30;2.60;;;;;;;16.67;70.76;100989.63;88626;275;136860;-71
2023/10/05 05:27:22;;;;;;;4.60;2.60;;;;;;;16.99;69.37;100990.48;88402;283;22584;-72
2023/10/05 05:29:24;;;;;;;4.90;2.50;;;;;;;17.27;67.63;100987.52;88417;274;135924;-72
2023/10/05 05:31:27;;;;;;;7.30;2.90;;;;;;;17.46;66.21;100987.31;88810;278;22562;-73
2023/10/05 05:33:30;;;;;;;7.90;2.60;;;;;;;17.55;65.39;100984.55;88680;274;135779;-73
2023/10/05 05:35:32;;;;;;;5.80;2.90;;;;;;;17.57;65.15;100983.87;88817;278;23775;-73
2023/10/05 05:37:34;;;;;;;4.80;2.20;;;;;;;17.66;65.58;100985.87;88610;274;137477;-73
2023/10/05 05:39:39;;;;;;;10.80;3.70;;;;;;;17.98;64.21;100989.48;88772;274;22615;-72
2023/10/05 05:41:41;;;;;;;;;;;;;;;18.28;63.28;100986.17;88714;274;136850;-73
2023/10/05 05:43:43;;;;;;;5.00;3.40;;;;;;;18.56;61.48;100983.96;88796;274;23715;-72
2023/10/05 05:45:45;;;;;;;11.10;3.20;;;;;;;18.58;60.60;100982.34;88390;274;137546;-71
2023/10/05 05:47:47;;;;;;;10.20;3.40;;;;;;;18.54;60.58;100982.58;88357;278;25134;-74
2023/10/05 05:49:50;;;;;;;4.60;2.60;;;;;;;18.54;60.49;100984.66;88877;271;136200;-73
2023/10/05 05:51:52;;;;;;;5.40;2.40;;;;;;;18.47;60.33;100987.05;88873;277;22531;-72
2023/10/05 05:53:53;;;;;;;4.90;2.70;;;;;;;18.44;60.53;100984.33;88924;276;135787;-72
2023/10/05 05:56:00;;;;;;;6.30;2.20;;;;;;;18.47;60.59;100987.05;88949;271;22553;-72
2023/10/05 05:58:04;;;;;;;6.40;2.60;;;;;;;18.58;60.17;100989.62;88789;276;24014;-73
2023/10/05 06:00:12;;;;;;;5.60;2.80;;;;;;;18.65;60.24;100990.23;88645;282;136143;-73
2023/10/05 06:02:14;;;;;;;5.10;2.30;;;;;;;18.89;59.58;100993.48;88963;277;22526;-73
2023/10/05 06:04:16;;;;;;;5.00;2.20;;;;;;;18.99;58.47;100992.52;88660;273;136707;-74
2023/10/05 06:06:21;;;;;;;5.20;2.70;;;;;;;18.99;58.77;100999.58;88847;277;25186;-78
2023/10/05 06:08:23;;;;;;;4.70;3.10;;;;;;;19.16;58.37;100994.36;88745;276;138084;-72
2023/10/05 06:10:28;;;;;;;8.50;2.60;;;;;;;19.36;57.58;100994.55;88998;273;25303;-72
2023/10/05 06:12:32;;;;;;;7.30;2.60;;;;;;;19.22;57.06;100985.83;88835;276;137300;-72
2023/10/05 06:14:34;;;;;;;4.00;2.90;;;;;;;18.69;58.51;100986.05;88811;272;24167;-69
2023/10/05 06:16:36;;;;;;;5.00;2.90;;;;;;;18.11;60.64;101001.98;88822;271;137229;-71
2023/10/05 06:18:38;;;;;;;7.10;2.40;;;;;;;17.50;62.89;101010.58;88956;271;24015;-71
2023/10/05 06:20:40;;;;;;;5.70;3.00;;;;;;;16.83;64.96;100996.66;88842;278;136093;-71
2023/10/05 06:22:44;;;;;;;5.50;2.80;;;;;;;16.45;68.16;101008.13;88971;278;23519;-74
2023/10/05 06:24:46;;;;;;;6.70;2.90;;;;;;;16.10;69.62;101006.98;88875;271;135985;-71
2023/10/05 06:26:48;;;;;;;5.90;3.40;;;;;;;15.73;72.14;101011.36;88945;279;23027;-69
2023/10/05 06:28:50;;;;;;;5.20;3.20;;;;;;;15.42;74.13;101008.20;88787;271;136218;-72
2023/10/05 06:30:52;;;;;;;13.50;3.60;;;;;;;15.19;75.77;101012.90;88850;273;22533;-75
2023/10/05 06:32:54;;;;;;;6.30;3.10;;;;;;;14.98;77.00;101014.36;88873;276;137245;-72
2023/10/05 06:34:57;;;;;;;5.60;3.00;;;;;;;14.79;78.64;101011.40;88990;271;22538;-72
2023/10/05 06:37:01;;;;;;;11.30;4.10;;;;;;;14.66;79.99;101014.56;88864;271;135999;-72
2023/10/05 06:39:05;;;;;;;;;;;;;;;14.59;80.34;101014.18;89010;273;22518;-76
2023/10/05 06:41:08;;;;;;;3.50;2.50;;;;;;;14.55;81.09;101016.98;89904;273;124106;-73
2023/10/05 06:43:10;;;;;;;10.40;3.90;;;;;;;14.51;81.99;101017.91;89116;271;22667;-73
2023/10/05 06:45:16;;;;;;;4.00;3.20;;;;;;;14.49;82.21;101021.40;88945;276;137307;-70
2023/10/05 06:47:36;;;;;;;6.70;3.50;;;;;;;14.45;82.36;101020.10;89097;276;22998;-72
2023/10/05 06:49:38;;;;;;;11.30;3.50;;;;;;;14.44;82.90;101019.65;88838;276;138507;-75
2023/10/05 06:51:43;;;;;;;9.10;3.50;;;;;;;14.48;83.00;101019.67;88982;271;24041;-72
2023/10/05 06:53:48;;;;;;;5.60;2.80;;;;;;;14.55;82.82;101020.75;88793;271;136719;-72
2023/10/05 06:55:51;;;;;;;7.60;3.00;;;;;;;14.63;82.80;101025.31;88934;279;25188;-74
2023/10/05 07:00:33;;;;;;;12.90;3.10;;;;;;;14.63;83.39;101020.48;87200;303;602270;-74
2023/10/05 07:02:34;;;;;;;7.40;3.20;;;;;;;14.70;82.70;101023.37;88553;290;25351;-75
2023/10/05 07:04:36;;;;;;;7.40;3.10;;;;;;;14.71;82.67;101024.08;88418;285;135611;-76
2023/10/05 07:06:38;;;;;;;6.90;3.60;;;;;;;14.74;82.72;101030.19;88413;289;25150;-72
2023/10/05 07:08:40;;;;;;;11.90;4.30;;;;;;;14.74;81.85;101030.52;88248;283;135863;-73
2023/10/05 07:10:42;;;;;;;6.70;2.80;;;;;;;14.71;82.14;101032.29;88333;290;25102;-72
2023/10/05 07:12:46;;;;;;;7.00;3.90;;;;;;;14.72;82.06;101035.02;88166;284;135432;-73
2023/10/05 07:14:49;;;;;;;;;;;;;;;14.69;82.33;101038.14;87900;290;657349;-69
2023/10/05 07:16:51;;;;;;;8.30;3.80;;;;;;;14.65;82.36;101042.30;88329;286;122950;-72
2023/10/05 07:18:53;;;;;;;8.60;3.90;;;;;;;14.62;82.55;101039.22;88502;282;22558;-73
2023/10/05 07:20:55;;;;;;;8.50;3.20;;;;;;;14.58;82.87;101030.80;88258;285;136582;-74
2023/10/05 07:22:56;;;;;;;4.50;3.70;;;;;;;14.64;82.57;101036.09;88492;283;22558;-69
2023/10/05 07:24:59;;;;;;;5.40;3.20;;;;;;;14.66;82.93;101033.70;87963;290;136319;-72
2023/10/05 07:27:01;;;;;;;5.10;3.10;;;;;;;14.71;82.93;101034.64;88399;287;22887;-69
2023/10/05 07:29:04;;;;;;;6.30;3.50;;;;;;;14.74;83.13;101032.06;87928;289;137334;-69
2023/10/05 07:31:24;;;;;;;3.60;3.10;;;;;;;14.79;83.00;101030.96;87986;289;22537;-72
2023/10/05 07:33:27;;;;;;;7.90;3.60;;;;;;;14.82;82.47;101031.31;88045;288;135760;-70
2023/10/05 07:35:29;;;;;;;5.40;3.90;;;;;;;14.79;82.60;101024.45;88205;281;22551;-69
2023/10/05 07:37:33;;;;;;;4.70;2.90;;;;;;;14.78;83.02;101026.21;87928;280;136059;-74
2023/10/05 07:39:41;;;;;;;6.30;2.90;;;;;;;14.79;82.98;101029.48;87898;282;22530;-68
2023/10/05 07:41:44;;;;;;;6.10;3.80;;;;;;;14.73;83.04;101018.42;88342;283;136712;-74
2023/10/05 07:43:46;;;;;;;7.00;3.20;;;;;;;14.82;82.82;101026.39;88378;283;24725;-74
2023/10/05 07:46:09;;;;;;;8.00;4.10;;;;;;;14.91;83.21;101025.33;87986;282;22700;-69
2023/10/05 07:48:12;;;;;;;5.90;2.70;;;;;;;14.96;82.71;101018.09;87959;287;136882;-72
2023/10/05 07:50:14;;;;;;;5.40;3.10;;;;;;;15.07;82.73;101015.89;88479;290;22596;-72
2023/10/05 07:52:16;;;;;;;5.60;2.50;;;;;;;15.16;82.39;101013.77;88259;283;137428;-73
2023/10/05 07:54:18;;;;;;;3.50;2.80;;;;;;;15.23;81.95;101013.95;88592;283;23721;-73
2023/10/05 07:56:20;;;;;;;7.90;3.20;;;;;;;15.30;81.96;101013.34;88331;281;137483;-73
2023/10/05 07:58:22;;;;;;;6.10;3.20;;;;;;;15.40;81.27;101008.59;88678;284;25109;-73
2023/10/05 08:00:24;;;;;;;5.40;3.50;;;;;;;15.47;80.59;101005.52;88576;284;136830;-76
2023/10/05 08:02:28;;;;;;;9.30;2.80;;;;;;;15.52;80.44;101006.88;88829;283;25061;-73
2023/10/05 08:04:30;;;;;;;7.20;2.50;;;;;;;15.58;79.88;101004.27;88634;279;135686;-71
2023/10/05 08:06:32;;;;;;;11.20;3.30;;;;;;;15.64;79.59;101002.28;88103;285;22539;-68
2023/10/05 08:08:35;;;;;;;7.80;3.30;;;;;;;15.62;78.69;100987.38;90317;282;136030;-69
2023/10/05 08:10:36;;;;;;;8.50;3.60;;;;;;;15.75;78.44;100995.92;88911;284;24688;-71
2023/10/05 08:12:39;;;;;;;8.70;3.70;;;;;;;15.83;78.21;100990.24;88882;286;135846;-72
2023/10/05 08:14:41;;;;;;;5.50;2.60;;;;;;;15.92;77.88;100990.12;88435;279;22574;-71
2023/10/05 08:16:45;;;;;;;5.60;3.50;;;;;;;15.99;77.45;100995.02;88492;279;135682;-72
2023/10/05 08:18:48;;;;;;;6.30;2.50;;;;;;;16.05;76.48;100995.98;89264;288;25069;-72
2023/10/05 08:20:50;;;;;;;3.80;2.50;;;;;;;16.09;75.99;100998.21;88450;281;136820;-72
2023/10/05 08:22:52;;;;;;;5.80;2.30;;;;;;;16.10;75.10;100995.14;88882;275;22621;-73
2023/10/05 08:24:54;;;;;;;5.60;2.80;;;;;;;16.08;74.83;100993.16;88683;282;135576;-73
2023/10/05 08:26:58;;;;;;;6.90;2.50;;;;;;;16.05;74.46;100990.52;88373;280;24075;-72
2023/10/05 08:29:01;;;;;;;4.60;1.90;;;;;;;15.98;74.96;100986.39;88316;276;136004;-73
2023/10/05 08:31:07;;;;;;;6.70;2.60;;;;;;;15.97;75.12;100987.05;88709;276;22537;-74
2023/10/05 08:33:10;;;;;;;5.60;2.70;;;;;;;15.91;75.19;100973.54;88813;274;136760;-73
2023/10/05 08:35:14;;;;;;;10.70;3.10;;;;;;;16.03;74.97;100983.70;88815;275;23625;-74
2023/10/05 08:37:18;;;;;;;5.90;2.50;;;;;;;16.10;74.75;100980.29;88765;275;137287;-74
2023/10/05 08:39:25;;;;;;;11.70;2.80;;;;;;;16.18;74.63;100980.54;88780;275;22910;-74
2023/10/05 08:41:41;;;;;;;5.80;2.90;;;;;;;16.24;74.22;100978.95;88719;278;135826;-80
2023/10/05 08:43:46;;;;;;;5.40;2.50;;;;;;;16.28;73.98;100978.33;88816;275;25087;-73
2023/10/05 08:45:51;;;;;;;4.10;2.20;;;;;;;16.33;73.87;100979.14;88647;277;135991;-75
2023/10/05 08:47:55;;;;;;;4.50;2.30;;;;;;;16.34;73.69;100976.61;88877;276;22632;-83
2023/10/05 08:49:59;;;;;;;3.50;2.80;;;;;;;16.39;73.67;100977.84;88746;275;136622;-73
2023/10/05 08:52:09;;;;;;;5.50;2.60;;;;;;;16.42;73.49;100970.84;88780;275;25092;-77
2023/10/05 08:54:13;;;;;;;5.50;2.50;;;;;;;16.45;72.62;100969.75;88770;282;22547;-73
2023/10/05 08:56:16;;;;;;;7.40;2.20;;;;;;;16.41;72.30;100970.73;88690;276;135971;-75
2023/10/05 08:58:22;;;;;;;4.80;2.00;;;;;;;16.36;72.45;100965.23;88854;275;22537;-74
2023/10/05 09:00:38;;;;;;;6.00;2.40;;;;;;;16.38;72.36;100961.67;88671;276;137111;-74
2023/10/05 09:02:40;;;;;;;5.30;2.30;;;;;;;16.37;72.28;100966.58;88795;283;22537;-75
2023/10/05 09:04:50;;;;;;;7.90;2.40;;;;;;;16.38;72.47;100965.73;88097;276;136071;-74
2023/10/05 09:07:08;;;;;;;4.80;2.10;;;;;;;16.44;72.33;100962.30;88787;284;24030;-77
2023/10/05 09:09:26;;;;;;;4.80;2.70;;;;;;;16.53;71.70;100964.30;88476;274;137654;-75
2023/10/05 09:11:31;;;;;;;6.60;2.20;;;;;;;16.62;71.15;100958.59;90417;281;24965;-74
2023/10/05 09:13:47;;;;;;;14.80;2.30;;;;;;;16.70;70.81;100954.75;89850;280;136628;-73
2023/10/05 09:15:52;;;;;;;7.90;2.70;;;;;;;16.78;70.45;100955.46;88310;276;22561;-74
2023/10/05 09:17:58;;;;;;;6.10;2.20;;;;;;;16.86;69.60;100959.81;88776;276;136575;-75
2023/10/05 09:20:41;;;;;;;4.30;2.10;;;;;;;16.91;68.93;100957.05;88291;276;22997;-74
2023/10/05 09:22:51;;;;;;;8.60;4.40;;;;;;;16.98;68.04;100957.30;87919;279;25338;-73
2023/10/05 09:24:53;;;;;;;5.40;2.10;;;;;;;16.97;68.17;100955.66;88181;279;135701;-74
2023/10/05 09:26:57;;;;;;;6.70;2.70;;;;;;;16.98;68.50;100955.07;88232;287;21755;-74
2023/10/05 09:29:20;;;;;;;3.10;1.60;;;;;;;17.04;67.66;100952.55;88302;282;136035;-78
2023/10/05 09:31:36;;;;;;;9.30;2.40;;;;;;;17.03;67.37;100954.81;88333;283;22377;-74
2023/10/05 09:33:53;;;;;;;9.60;2.00;;;;;;;17.04;67.40;100952.47;88798;275;135929;-76
2023/10/05 09:36:01;;;;;;;5.00;2.00;;;;;;;17.09;67.21;100946.30;89087;282;22554;-75
2023/10/05 09:38:09;;;;;;;4.10;1.90;;;;;;;17.14;66.75;100942.21;88899;279;22550;-75
2023/10/05 09:40:16;;;;;;;6.10;1.90;;;;;;;17.18;65.95;100947.16;90669;282;137065;-73
2023/10/05 09:42:26;;;;;;;5.20;1.80;;;;;;;17.20;66.02;100944.17;88892;276;23201;-74
2023/10/05 09:44:31;;;;;;;2.00;1.20;;;;;;;17.22;65.46;100940.63;88230;282;135974;-71
2023/10/05 09:46:34;;;;;;;5.20;1.60;;;;;;;17.20;63.82;100941.80;91232;284;22793;-75
2023/10/05 09:48:38;;;;;;;2.60;1.30;;;;;;;17.18;63.50;100942.44;89218;276;136062;-75
2023/10/05 09:50:40;;;;;;;5.10;1.50;;;;;;;17.16;64.15;100937.48;91076;284;22335;-75
2023/10/05 09:52:43;;;;;;;4.80;1.70;;;;;;;17.06;64.70;100929.38;90304;282;138140;-75
2023/10/05 09:54:47;;;;;;;6.00;2.70;;;;;;;17.05;65.26;100939.20;88296;274;22341;-76
2023/10/05 09:56:49;;;;;;;5.10;2.60;;;;;;;17.01;65.22;100933.39;88949;274;136331;-71